Willow, NY (12495)

6:01 PM EST on January 16, 2018 (GMT -0500)
Willow, NY | | Change Station
Active Advisory: Winter Weather Advisory

Elev 1033 ft 42.07 °N, 74.22 °W | Updated 7 minutes ago

Snow
Snow
26.5 °F
Feels Like 26 °F
N
0.0
Wind Variable Wind from East
Gusts 1.0 mph

Today
High -- | Low -- °F
--% Chance of Precip.
Yesterday
High -- | Low -- °F
Precip. -- in
Pressure 30.41 in
Visibility 2.0 miles
Clouds Overcast 2300 ft
Windchill 26 °F
Dew Point -9 °F
Humidity 21%
Rainfall 0.00 in
Snow Depth Not available.
7:22 AM 4:51 PM
Waning Crescent, 0% visible
METAR KPOU 162253Z 00000KT 2SM BR OVC023 M02/M03 A3041 RMK AO2 SNE28 SLP297 P0000 T10171028
Pressure 30.41 in
Visibility 2.0 miles
Clouds Overcast 2300 ft
Windchill 26 °F
Dew Point -9 °F
Humidity 21%
Rainfall 0.00 in
Snow Depth Not available.
7:22 AM 4:51 PM
Waning Crescent, 0% visible
METAR KPOU 162253Z 00000KT 2SM BR OVC023 M02/M03 A3041 RMK AO2 SNE28 SLP297 P0000 T10171028

Get Your Daily Forecast Email!

Thanks for signing up!

Be on the lookout for a verification email in your inbox.

You'll start receiving severe weather alerts in your inbox..

×

10-Day Weather Forecast

Almanac

Astronomy

Jan. 16, 2018 Rise Set
Actual Time
Civil Twilight
Nautical Twilight
Astronomical Twilight
Moon
Length of Visible Light
Length of Day
Tomorrow will be .
, % of the Moon is Illuminated

Today's Extremes

State Highs State Lows

Community

WunderPhotos

Category 6

Welcome to Category 6. This is the collective home for Weather Underground's featured writeups by Dr. Jeff Masters (right), Bob Henson (left), Chris Burt, and other regular contributors.

Nearby

Air Quality

  Air Quality AQ Index Pollutant
Not available.

Snow Depth

Station Depth Elevation

Earthquake Activity

City Distance Mag. Time & Date
Minimum magnitude displayed is 2.5.

Coastal Water Temperatures

Place Temperature

Stations

Nearby Weather Stations

Station Location Temp. Windchill Dew Point Humidity Wind Precip. Elev Updated Type
                   

Watches & Warnings

Winter Weather Advisory
Issued: 3:39 PM EST Jan. 16, 2018 – National Weather Service

... Winter Weather Advisory remains in effect until 3 PM EST
Wednesday...

* what... snow expected. Plan on slippery Road conditions and
difficult travel conditions, tonight into the morning commute
on Wednesday. Total snow accumulations of 4 to 8 inches are
expected.

* Where... the greater capital district, southern Washington
County, and the eastern Catskills of east central New York.

* When... until 3 PM EST Wednesday.

* Additional details... be prepared for reduced visibilities at
times and snow covered roads. Maximum snowfall rates of a half
inch per hour are expected.

Precautionary/preparedness actions...

A Winter Weather Advisory for snow means periods of snow will
cause primarily travel difficulties. Be prepared for snow covered
roads and limited visibilities, and use caution while driving.